< < Back
Terminal Aerodrome Forecast


Current Version              Previous Versions:   1  2  3  4  5  6  7  8  9  

Terminal Aerodrome Forecast

492
FTUS42 KFFC 311121
TAFFTY
TAF
KFTY 311121Z 3112/0112 VRB03KT P6SM SKC
     FM311400 21004KT P6SM SCT035
     FM311600 22005KT P6SM BKN040
     FM311800 26010KT P6SM VCSH BKN040
      TEMPO 3119/3123 -TSRA BKN025CB
     FM010200 26006KT P6SM SCT050 BKN150=



Latest METAR

917
SAUS70 KWBC 312200 RRD
MTRFTY
METAR KFTY 312153Z 27005KT 10SM SCT080 SCT095 23/13 A2992 RMK AO2 LTG
DSNT SE-SW SLP129 T02280128


USA.gov is the U.S. government's official web portal to all federal, state and local government web resources and services.